Terminal Aerodrome Forecast
Issued by NWS

Home | Current Version | Previous Version | Graphics & Text | Print | Product List | Glossary On
Versions: 1 2 3 4 5 6 7 8 9 10 11 12 13 14 15 16 17 18 19
000
FTUS41 KCLE 192300
TAFFDY
TAF
KFDY 192329Z 2000/2024 16005KT P6SM SCT250
      TEMPO 2011/2013 5SM BR
     FM201500 22012G18KT P6SM BKN250
     FM202000 24014G20KT P6SM SCT045 BKN120
      TEMPO 2020/2024 BKN045=

USA.gov is the U.S. government's official web portal to all federal, state and local government web resources and services.